Easy Aviation Weather Mail

Tokyo Haneda International Airport
JAPAN
RJTT, HND
Location (latitude, longitude): 35.552299, 139.779999
Elevation: 10.668 meter

METAR: RJTT 192100Z 36010KT 9999 FEW025 SCT040 BKN140 23/18 Q1013 NOSIG RMK 1SC025 4SC040 5AC140 A2993

-----------------------------

Narita International Airport
JAPAN
RJAA, NRT
Location (latitude, longitude): 35.7647018433, 140.386001587
Elevation: 42.9768 meter

METAR: RJAA 192100Z 33006KT 9999 FEW015 SCT040 BKN200 20/19 Q1013 NOSIG RMK 1CU015 3SC040 5AC200 A2993

-----------------------------

Iruma Air Base
JAPAN
RJTJ, --
Location (latitude, longitude): 35.8418998718262, 139.410995483398
Elevation: 89.916 meter

METAR: No METAR data!

-----------------------------

Osaka International Airport
JAPAN
RJOO, ITM
Location (latitude, longitude): 34.7854995727539, 135.438003540039
Elevation: 15.24 meter

METAR: RJOO 192100Z 30003KT 270V340 9999 -SHRA FEW035 SCT050 BKN120 19/15 Q1014 RMK 1CU035 4SC050 5AC120 A2996

-----------------------------